Latest Weather Observations for Eucla

IDW60801

Issued at 5:23 pm WST Saturday 20 July 2019 (issued every 10 minutes, with the page automatically refreshed every 10 minutes)

About weather observations | Map of weather stations | Latest weather observations for WA | Other Formats
Station Details ID: 011003 Name: EUCLA Lat: -31.68 Lon: 128.90 Height: 93.1 m
Data from the previous 72 hours. | See also: Recent months at Eucla
Date/Time
WST
Temp
°C
App
Temp
°C
Dew
Point
°C
Rel
Hum
%
Delta-T
°C
Wind Press
QNH
hPa
Press
MSL
hPa
Rain since
9am
mm
Dir  Spd
km/h
Gust
km/h
Spd
kts
Gust
kts
20/05:00pm 12.5 8.0 7.0 69 2.7 WSW 20 35 11 19 1014.1 1014.1 0.0
20/04:30pm 13.3 8.6 6.2 62 3.4 SW 20 30 11 16 1013.3 1013.3 0.0
20/04:00pm 14.1 9.1 6.5 60 3.7 SW 22 39 12 21 1012.8 1012.8 0.0
20/03:30pm 14.5 9.2 6.6 59 3.8 SW 24 37 13 20 1012.1 1012.1 0.0
20/03:17pm 15.0 8.7 5.8 54 4.4 SW 28 46 15 25 1011.9 1011.9 0.0
20/03:00pm 15.5 9.1 5.4 51 4.8 SW 28 39 15 21 1011.4 1011.4 0.0
20/02:30pm 15.3 10.6 7.6 60 3.8 SW 22 37 12 20 1010.9 1010.9 0.0
20/02:00pm 16.8 12.2 8.0 56 4.5 SW 22 39 12 21 1010.1 1010.1 0.0
20/01:30pm 16.8 10.6 6.0 49 5.3 WSW 28 44 15 24 1009.5 1009.5 0.0
20/01:02pm 16.6 10.8 7.8 56 4.5 WSW 28 46 15 25 1009.1 1009.1 0.0
20/01:00pm 16.5 11.1 8.0 57 4.3 SW 26 46 14 25 1009.1 1009.1 0.0
20/12:30pm 16.5 9.9 6.1 50 5.1 SW 30 54 16 29 1008.4 1008.4 0.0
20/12:00pm 19.5 12.8 3.6 35 7.6 W 28 41 15 22 1007.7 1007.8 0.0
20/11:38am 21.0 14.3 3.7 32 8.3 W 28 48 15 26 1007.4 1007.5 0.0
20/11:30am 20.2 14.1 3.0 32 8.1 W 24 35 13 19 1007.4 1007.5 0.0
20/11:03am 20.9 13.6 2.7 30 8.6 WSW 30 48 16 26 1007.2 1007.3 0.0
20/11:00am 21.0 13.8 2.8 30 8.6 WSW 30 48 16 26 1007.1 1007.1 0.0
20/10:30am 20.5 13.2 2.3 30 8.5 W 30 48 16 26 1006.9 1006.9 0.0
20/10:22am 20.4 13.4 1.8 29 8.6 W 28 46 15 25 1007.0 1007.0 0.0
20/10:00am 20.3 13.0 0.2 26 9.0 W 28 41 15 22 1006.8 1006.8 0.0
20/09:50am 20.5 13.2 -0.2 25 9.2 WNW 28 48 15 26 1006.8 1006.8 0.0
20/09:30am 19.7 11.8 -1.4 24 9.1 WNW 30 41 16 22 1006.7 1006.7 0.0
20/09:00am 18.9 10.7 -3.9 21 9.3 NW 30 39 16 21 1006.5 1006.5 0.0
20/08:30am 17.3 10.9 -5.2 21 8.7 NW 20 32 11 17 1005.8 1005.8 0.0
20/08:00am 14.9 7.8 -8.5 19 8.3 NW 22 33 12 18 1006.1 1006.1 0.0
20/07:30am 13.4 6.2 -9.1 20 7.7 NNW 22 33 12 18 1006.4 1006.4 0.0
20/07:00am 12.0 4.1 -9.0 22 7.1 NNW 26 35 14 19 1006.4 1006.4 0.0
20/06:30am 10.8 3.7 -8.9 24 6.5 NNW 22 32 12 17 1006.1 1006.1 0.0
20/06:00am 10.7 3.2 -8.5 25 6.4 NNW 24 33 13 18 1006.3 1006.3 0.0
20/05:30am 11.4 3.5 -8.4 24 6.7 NNW 26 35 14 19 1005.3 1005.3 0.0
20/05:00am 11.7 4.6 -8.7 23 6.9 N 22 32 12 17 1005.3 1005.3 0.0
20/04:30am 12.9 4.9 -9.5 20 7.5 NNW 26 35 14 19 1005.3 1005.3 0.0
20/04:00am 12.5 4.9 -9.2 21 7.3 NNW 24 33 13 18 1005.4 1005.4 0.0
20/03:30am 12.9 5.3 -9.5 20 7.5 N 24 39 13 21 1005.7 1005.7 0.0
20/03:00am 13.1 5.5 -9.3 20 7.6 N 24 35 13 19 1006.0 1006.0 0.0
20/02:30am 11.7 4.6 -8.2 24 6.8 N 22 32 12 17 1006.4 1006.4 0.0
20/02:00am 11.9 4.8 -8.0 24 6.8 N 22 32 12 17 1006.7 1006.7 0.0
20/01:30am 12.5 5.5 -7.0 25 6.9 N 22 30 12 16 1007.2 1007.3 0.0
20/01:00am 11.8 5.4 -7.1 26 6.6 N 19 28 10 15 1007.6 1007.7 0.0
20/12:30am 11.6 5.2 -6.7 27 6.4 N 19 26 10 14 1008.3 1008.3 0.0
20/12:00am 11.2 5.2 -7.1 27 6.4 N 17 24 9 13 1008.7 1008.7 0.0
 
Date/Time
WST
Temp
°C
App
Temp
°C
Dew
Point
°C
Rel
Hum
%
Delta-T
°C
Wind Press
QNH
hPa
Press
MSL
hPa
Rain since
9am
mm
Dir  Spd
km/h
Gust
km/h
Spd
kts
Gust
kts
19/11:30pm 11.2 5.1 -7.6 26 6.4 N 17 22 9 12 1009.1 1009.1 0.0
19/11:00pm 10.6 4.5 -7.6 27 6.2 N 17 20 9 11 1009.5 1009.5 0.0
19/10:30pm 9.9 4.1 -8.2 27 6.0 N 15 17 8 9 1010.1 1010.1 0.0
19/10:00pm 9.4 4.0 -8.6 27 5.9 N 13 15 7 8 1010.5 1010.5 0.0
19/09:30pm 10.2 4.8 -8.4 26 6.2 N 13 15 7 8 1010.6 1010.6 0.0
19/09:00pm 9.9 4.5 -8.2 27 6.0 N 13 15 7 8 1010.8 1010.8 0.0
19/08:30pm 10.3 4.9 -8.3 26 6.2 N 13 15 7 8 1011.1 1011.1 0.0
19/08:00pm 10.5 5.2 -7.7 27 6.2 N 13 15 7 8 1011.4 1011.4 0.0
19/07:30pm 11.6 6.3 -7.7 25 6.6 N 13 15 7 8 1011.6 1011.6 0.0
19/07:00pm 12.1 6.8 -7.8 24 6.9 N 13 13 7 7 1011.7 1011.7 0.0
19/06:30pm 12.8 7.5 -7.2 24 7.1 N 13 15 7 8 1011.6 1011.6 0.0
19/06:00pm 13.8 8.5 -7.5 22 7.6 N 13 13 7 7 1011.7 1011.7 0.0
19/05:30pm 15.0 9.7 -7.1 21 8.0 N 13 13 7 7 1011.7 1011.7 0.0
19/05:00pm 16.6 11.6 -7.8 18 8.9 NNW 11 11 6 6 1011.8 1011.8 0.0
19/04:30pm 20.8 16.1 -8.6 13 11.1 NNW 9 15 5 8 1011.7 1011.7 0.0
19/04:00pm 22.8 17.3 -9.2 11 12.2 NNW 13 19 7 10 1011.9 1011.9 0.0
19/03:30pm 23.9 17.3 -9.5 10 12.8 NNW 19 28 10 15 1012.0 1012.0 0.0
19/03:00pm 24.4 18.3 -7.9 11 12.8 NNW 17 26 9 14 1012.1 1012.1 0.0
19/02:30pm 24.5 17.8 -7.9 11 12.8 NNW 20 30 11 16 1012.2 1012.2 0.0
19/02:00pm 24.6 18.6 -6.7 12 12.7 NNW 17 28 9 15 1012.5 1012.5 0.0
19/01:30pm 24.5 18.5 -6.7 12 12.7 NNW 17 28 9 15 1012.8 1012.8 0.0
19/01:00pm 24.5 17.9 -6.7 12 12.7 NNW 20 32 11 17 1013.3 1013.3 0.0
19/12:30pm 24.1 17.7 -7.0 12 12.5 N 19 30 10 16 1013.8 1013.8 0.0
19/12:00pm 24.3 17.9 -6.9 12 12.6 NNW 19 32 10 17 1014.4 1014.4 0.0
19/11:30am 23.5 17.0 -5.5 14 11.9 N 20 37 11 20 1015.1 1015.1 0.0
19/11:00am 22.9 16.6 -6.0 14 11.7 N 19 30 10 16 1015.8 1015.8 0.0
19/10:30am 22.1 15.9 -4.9 16 11.1 N 19 28 10 15 1016.5 1016.6 0.0
19/10:00am 20.6 14.5 -3.8 19 10.1 N 19 26 10 14 1017.1 1017.2 0.0
19/09:30am 18.8 12.8 -2.7 23 8.9 N 19 26 10 14 1017.3 1017.4 0.0
19/09:00am 16.6 10.5 -2.5 27 7.8 N 20 28 11 15 1017.5 1017.6 0.0
19/08:30am 14.5 8.4 -2.4 31 6.8 N 20 30 11 16 1017.5 1017.6 0.0
19/08:00am 12.5 7.0 -1.8 37 5.7 N 17 26 9 14 1017.8 1017.9 0.0
19/07:30am 10.5 4.3 -2.8 39 5.1 N 20 30 11 16 1017.9 1018.0 0.0
19/07:00am 7.8 2.2 -3.1 46 4.0 N 17 24 9 13 1017.8 1017.9 0.0
19/06:30am 5.6 -0.5 -3.7 51 3.3 N 19 24 10 13 1017.7 1017.8 0.0
19/06:00am 5.3 -0.4 -3.5 53 3.1 N 17 20 9 11 1017.8 1017.9 0.0
19/05:30am 5.0 -0.7 -3.8 53 3.1 N 17 19 9 10 1017.9 1018.0 0.0
19/05:00am 4.4 -1.3 -3.6 56 2.8 N 17 20 9 11 1017.8 1017.9 0.0
19/04:30am 4.2 -1.1 -3.5 57 2.7 N 15 19 8 10 1017.9 1018.0 0.0
19/04:00am 4.7 -0.6 -3.6 55 2.9 N 15 19 8 10 1017.9 1018.0 0.0
19/03:30am 4.3 -0.9 -2.8 60 2.5 N 15 19 8 10 1018.1 1018.2 0.0
19/03:00am 4.4 -0.8 -2.7 60 2.5 N 15 15 8 8 1018.4 1018.5 0.0
19/02:30am 5.0 0.3 -1.9 61 2.5 N 13 15 7 8 1018.6 1018.7 0.0
19/02:00am 4.8 -0.2 -1.4 64 2.3 NNE 15 15 8 8 1019.1 1019.1 0.0
19/01:30am 4.6 0.1 -0.6 69 1.9 NNE 13 13 7 7 1019.4 1019.4 0.0
19/01:00am 5.3 1.2 0.1 69 2.0 NNE 11 13 6 7 1019.5 1019.5 0.0
19/12:30am 5.8 2.3 1.0 71 1.9 NNE 9 11 5 6 1019.5 1019.5 0.0
19/12:00am 5.9 2.6 2.2 77 1.5 NNE 9 9 5 5 1019.7 1019.7 0.0
 
Date/Time
WST
Temp
°C
App
Temp
°C
Dew
Point
°C
Rel
Hum
%
Delta-T
°C
Wind Press
QNH
hPa
Press
MSL
hPa
Rain since
9am
mm
Dir  Spd
km/h
Gust
km/h
Spd
kts
Gust
kts
18/11:30pm 5.6 2.0 3.1 84 1.0 NNE 11 13 6 7 1019.9 1019.9 0.0
18/11:00pm 6.7 3.8 4.7 87 0.9 NE 9 13 5 7 1020.0 1020.0 0.0
18/10:30pm 6.3 3.7 4.1 86 0.9 NE 7 9 4 5 1020.1 1020.1 0.0
18/10:00pm 7.0 4.5 4.7 85 1.0 NE 7 9 4 5 1020.3 1020.3 0.0
18/09:30pm 7.2 4.7 4.5 83 1.2 NE 7 7 4 4 1020.5 1020.5 0.0
18/09:00pm 7.4 4.5 4.5 82 1.3 NE 9 11 5 6 1020.2 1020.2 0.0
18/08:30pm 6.4 3.7 2.5 76 1.6 SSE 6 7 3 4 1020.3 1020.3 0.0
18/08:00pm 8.0 5.2 3.3 72 2.0 SSE 7 9 4 5 1020.3 1020.3 0.0
18/07:30pm 9.9 7.0 4.7 70 2.3 SSE 9 9 5 5 1020.2 1020.2 0.0
18/07:00pm 12.2 9.2 5.8 65 3.0 S 11 11 6 6 1020.0 1020.0 0.0
18/06:30pm 12.9 9.8 3.6 53 4.2 S 9 11 5 6 1019.9 1019.9 0.0
18/06:00pm 13.4 9.7 2.3 47 4.9 S 11 13 6 7 1019.6 1019.6 0.0
18/05:30pm 12.7 8.9 2.0 48 4.6 SSE 11 11 6 6 1019.1 1019.1 0.0
18/05:00pm 12.3 9.1 0.7 45 4.9 SE 7 7 4 4 1018.7 1018.8 0.0
18/04:30pm 15.4 12.1 0.4 36 6.4 SSE 7 13 4 7 1018.8 1018.9 0.0
18/04:00pm 18.1 15.0 1.2 32 7.5 SSE 7 7 4 4 1018.6 1018.7 0.0
18/03:30pm 19.2 15.6 0.8 29 8.2 SSE 9 13 5 7 1018.7 1018.8 0.0
18/03:00pm 20.0 15.5 -0.6 25 9.0 S 13 17 7 9 1018.7 1018.8 0.0
18/02:30pm 20.8 16.7 -0.5 24 9.4 S 11 15 6 8 1018.7 1018.8 0.0
18/02:00pm 21.8 17.7 -0.2 23 9.8 SSW 11 19 6 10 1018.4 1018.5 0.0
18/01:30pm 22.8 18.3 -3.5 17 11.2 W 11 17 6 9 1018.3 1018.4 0.0
18/01:00pm 22.8 17.9 -3.5 17 11.1 W 13 22 7 12 1018.6 1018.7 0.0
18/12:30pm 22.5 17.2 -3.7 17 11.0 W 15 26 8 14 1019.2 1019.2 0.0
18/12:00pm 22.3 16.7 -3.1 18 10.8 WNW 17 30 9 16 1019.8 1019.8 0.0
18/11:30am 21.7 15.9 -1.6 21 10.2 WNW 19 28 10 15 1020.3 1020.3 0.0
18/11:00am 21.1 15.5 -0.2 24 9.5 NW 19 28 10 15 1020.8 1020.8 0.0
18/10:30am 19.7 13.6 0.2 27 8.7 NW 22 32 12 17 1021.1 1021.1 0.0
18/10:00am 18.3 11.8 0.4 30 7.9 NNW 24 33 13 18 1021.5 1021.5 0.0
18/09:30am 17.3 11.4 1.7 35 7.0 NNW 22 32 12 17 1021.7 1021.7 0.0
18/09:00am 15.3 9.8 1.8 40 5.9 NNW 20 30 11 16 1021.9 1021.9 0.0
18/08:30am 13.0 7.7 2.0 47 4.8 NNW 19 30 10 16 1021.8 1021.8 0.0
18/08:00am 10.5 5.0 1.6 54 3.7 N 20 32 11 17 1021.5 1021.5 0.0
18/07:30am 8.0 2.4 1.4 63 2.7 N 20 28 11 15 1021.4 1021.4 0.0
18/07:00am 5.8 0.3 0.8 70 2.0 N 19 28 10 15 1021.3 1021.3 0.0
18/06:30am 3.7 -2.1 -0.1 76 1.4 N 20 28 11 15 1021.0 1021.0 0.0
18/06:00am 3.9 -1.9 -0.3 74 1.6 N 20 26 11 14 1020.9 1020.9 0.0
18/05:30am 5.0 -1.1 0.2 71 1.8 N 22 32 12 17 1020.7 1020.7 0.0
18/05:00am 4.1 -1.5 -0.1 74 1.6 N 19 26 10 14 1020.6 1020.6 0.0
18/04:30am 3.6 -2.2 0.0 77 1.4 N 20 26 11 14 1020.5 1020.5 0.0
18/04:00am 4.7 -1.8 0.5 74 1.6 N 24 30 13 16 1020.3 1020.3 0.0
18/03:30am 4.8 -0.9 0.8 75 1.6 N 20 30 11 16 1020.5 1020.5 0.0
18/03:00am 4.7 -1.3 1.0 77 1.4 N 22 30 12 16 1020.6 1020.6 0.0
18/02:30am 5.3 -0.6 1.6 77 1.5 N 22 32 12 17 1020.9 1020.9 0.0
18/02:00am 5.1 -0.2 2.1 81 1.2 N 19 26 10 14 1021.1 1021.1 0.0
18/01:30am 5.0 -0.2 2.5 84 1.0 N 19 24 10 13 1021.3 1021.3 0.0
18/01:00am 5.4 0.3 3.1 85 1.0 N 19 28 10 15 1021.4 1021.4 0.0
18/12:30am 5.8 0.6 3.6 86 0.9 N 20 28 11 15 1021.4 1021.4 0.0
18/12:00am 6.4 1.0 4.6 88 0.8 N 22 30 12 16 1021.5 1021.5 0.0
 
Date/Time
WST
Temp
°C
App
Temp
°C
Dew
Point
°C
Rel
Hum
%
Delta-T
°C
Wind Press
QNH
hPa
Press
MSL
hPa
Rain since
9am
mm
Dir  Spd
km/h
Gust
km/h
Spd
kts
Gust
kts
17/11:30pm 6.4 1.4 4.6 88 0.8 N 20 30 11 16 1022.1 1022.1 0.0
17/11:00pm 6.4 1.6 4.7 89 0.7 NNE 19 28 10 15 1022.4 1022.4 0.0
17/10:30pm 6.5 2.1 5.0 90 0.7 NNE 17 22 9 12 1022.8 1022.8 0.0
17/10:00pm 6.5 2.9 4.8 89 0.7 NNE 13 17 7 9 1023.3 1023.3 0.0
17/09:30pm 6.9 3.3 4.9 87 0.9 NNE 13 17 7 9 1023.3 1023.3 0.0
17/09:00pm 7.7 4.2 5.3 85 1.1 NNE 13 19 7 10 1023.5 1023.5 0.0
17/08:30pm 8.4 5.0 5.9 84 1.1 NE 13 19 7 10 1023.5 1023.5 0.0
17/08:00pm 8.7 5.0 6.2 84 1.1 NE 15 19 8 10 1023.7 1023.7 0.0
17/07:30pm 8.7 5.3 6.0 83 1.2 NE 13 17 7 9 1024.0 1024.0 0.0
17/07:00pm 8.8 5.7 5.7 81 1.4 NE 11 15 6 8 1023.9 1023.9 0.0
17/06:30pm 9.3 6.3 6.0 80 1.5 NE 11 15 6 8 1023.9 1023.9 0.0
17/06:00pm 9.9 7.4 6.4 79 1.6 NE 9 11 5 6 1023.8 1023.8 0.0
17/05:30pm 10.4 7.9 6.7 78 1.7 ENE 9 13 5 7 1023.6 1023.6 0.0

Other formats

Comma delimited format used in spreadsheet applications
http://www.bom.gov.au/fwo/IDW60801/IDW60801.94647.axf

JavaScript Object Notation format (JSON) in row-major order
http://www.bom.gov.au/fwo/IDW60801/IDW60801.94647.json

Data quality

Most of these data are generated automatically and are frequently updated. Quality checks on data are not normally performed. It is possible for incorrect values to appear. Refer to information at About Latest Weather Observations and please check the disclaimer before using these data.